This is the latest recevied weather packets stored in our database for station/object W9GWP. If no packets are shown the sender has not sent any weather packets the latest 10 day(s).
| Time | Temp. | Humidity | Pressure | Rain* | Wind** | Luminosity | Snow |
|---|---|---|---|---|---|---|---|
| 1777506512 | 7.22° C | 84% | 1044.7 hPa | 0 mm | - | 22 W/m² | - |
| 1777505611 | 7.78° C | 84% | 1044.7 hPa | 0 mm | - | 22 W/m² | - |
| 1777504708 | 7.78° C | 83% | 1044.6 hPa | 0 mm | - | 28 W/m² | - |
| 1777503807 | 7.78° C | 83% | 1044.3 hPa | 0 mm | - | 44 W/m² | - |
| 1777502904 | 7.78° C | 83% | 1044.4 hPa | 0 mm | - | 70 W/m² | - |
| 1777502000 | 7.78° C | 83% | 1044.5 hPa | 0 mm | - | 161 W/m² | - |
| 1777501098 | 7.78° C | 83% | 1044.6 hPa | 0 mm | - | 83 W/m² | - |
| 1777500195 | 8.89° C | 80% | 1044.1 hPa | 0 mm | - | 143 W/m² | - |
| 1777499292 | 7.78° C | 83% | 1044.3 hPa | 0 mm | - | 223 W/m² | - |
| 1777498387 | 7.22° C | 85% | 1044.2 hPa | 0 mm | - | 147 W/m² | - |
| 1777497484 | 7.78° C | 86% | 1044.3 hPa | 0 mm | - | 97 W/m² | - |
| 1777496580 | 7.78° C | 86% | 1044.2 hPa | 0 mm | - | 71 W/m² | - |
| 1777495674 | 7.78° C | 86% | 1044.4 hPa | 0 mm | - | 94 W/m² | - |
| 1777494770 | 7.78° C | 86% | 1044.1 hPa | 0 mm | - | 38 W/m² | - |
| 1777493867 | 7.78° C | 85% | 1044.1 hPa | 0 mm | - | 51 W/m² | - |
| 1777492965 | 8.33° C | 85% | 1044.4 hPa | 0 mm | - | 100 W/m² | - |
| 1777492065 | 7.78° C | 86% | 1044.3 hPa | 0 mm | - | 223 W/m² | - |
| 1777491161 | 7.22° C | 90% | 1043.8 hPa | 0 mm | - | 333 W/m² | - |
| 1777490261 | 6.67° C | 92% | 1044.1 hPa | 0 mm | - | 61 W/m² | - |
| 1777489358 | 7.22° C | 91% | 1043.8 hPa | 1.78 mm | - | 182 W/m² | - |
| 1777488455 | 7.22° C | 91% | 1043.8 hPa | 0 mm | - | 48 W/m² | - |
| 1777487555 | 7.22° C | 92% | 1043.3 hPa | 0 mm | - | 54 W/m² | - |
| 1777486650 | 7.22° C | 92% | 1043.4 hPa | 0.51 mm | - | 57 W/m² | - |
| 1777485748 | 7.78° C | 90% | 1043.3 hPa | 0 mm | - | 51 W/m² | - |
| 1777484848 | 7.78° C | 87% | 1043.3 hPa | 0 mm | - | 64 W/m² | - |
* Rain latest hour (hover to see other rain measurements)
** Current wind speed in m/s (hover to see current wind gust speed)